LFSN/ENC METAR and TAF weather

Enter ICAO airport designator
Station Type Date Time Source
LFSN METAR 2021/07/30 07:30 UTC NOAA

LFSN 300730Z AUTO VRB02KT CAVOK 20/14 Q1012


Station Type Date Time Source
LFSN Decoded METAR 2021/07/30 07:30 UTC NOAA

Nancy / Essey, France (LFSN) 48-41N 006-13E 217M
Jul 30, 2021 - 03:30 AM EDT / 2021.07.30 0730 UTC
Wind: Variable at 2 MPH (2 KT):0
Visibility: greater than 7 mile(s):0
Temperature: 68 F (20 C)
Dew Point: 57 F (14 C)
Relative Humidity: 68%
Pressure (altimeter): 29.88 in. Hg (1012 hPa)
ob: LFSN 300730Z AUTO VRB02KT CAVOK 20/14 Q1012
cycle: 7

Station Type Date Time Source
LFSN TAF 2012/03/14 16:58 UTC NOAA

TAF LFSN 141600Z 1416/1512 CNL

Example: see airport list